Ramer, Alabama
Current Conditions -  °F | °C
As of 10:53 PM on Wednesday 22 Oct 2014 (Local Time) from KTOI Reporting Station
Clear Clear  
Wind Chill: 10°   Ceiling: Unl
Heat Index: 10°   Visibility: 10mi
Dew Point:   Wind: 3mph
Humidity: 80%   Direction: 30°NNE
Pressure: 30.11"   Gusts: NA
Location:  32.05°N, 86.22°W
Report Text: KTOI 230353Z AUTO 03003KT 10SM CLR 10/07 A3011 RMK AO2 SLP193 T01000067
Loading
Personal Weather Stations






























Interactive Weather Map
Tropical Storm Tracking
New forecast layout! Learn more

10-Day Weather Forecast

Advertisements
Track Severe Weather on mobile